sensor_id;sensor_type;location;lat;lon;timestamp;pressure;altitude;pressure_sealevel;temperature;humidity
76126;BME280;65174;48.138;21.002;2024-03-23T00:54:19;68235.47;;;7.39;100.00
76126;BME280;65174;48.138;21.002;2024-03-23T00:57:20;68233.31;;;7.37;100.00
76126;BME280;65174;48.138;21.002;2024-03-23T01:00:21;68231.38;;;7.35;100.00
76126;BME280;65174;48.138;21.002;2024-03-23T01:03:22;68228.97;;;7.33;100.00
76126;BME280;65174;48.138;21.002;2024-03-23T01:06:23;68225.94;;;7.30;100.00
76126;BME280;65174;48.138;21.002;2024-03-23T01:09:24;68223.38;;;7.28;100.00
76126;BME280;65174;48.138;21.002;2024-03-23T01:12:24;68221.56;;;7.26;100.00
76126;BME280;65174;48.138;21.002;2024-03-23T01:15:25;68219.28;;;7.24;100.00
76126;BME280;65174;48.138;21.002;2024-03-23T01:18:26;68217.44;;;7.22;100.00
76126;BME280;65174;48.138;21.002;2024-03-23T01:21:27;68216.13;;;7.21;100.00
76126;BME280;65174;48.138;21.002;2024-03-23T01:24:28;68215.69;;;7.21;100.00
76126;BME280;65174;48.138;21.002;2024-03-23T01:27:29;68215.72;;;7.20;100.00
76126;BME280;65174;48.138;21.002;2024-03-23T01:30:30;68215.63;;;7.20;100.00
76126;BME280;65174;48.138;21.002;2024-03-23T01:33:31;68214.19;;;7.19;100.00
76126;BME280;65174;48.138;21.002;2024-03-23T01:36:32;68212.78;;;7.17;100.00
76126;BME280;65174;48.138;21.002;2024-03-23T01:39:33;68211.56;;;7.16;100.00
76126;BME280;65174;48.138;21.002;2024-03-23T01:42:34;68209.97;;;7.15;100.00
76126;BME280;65174;48.138;21.002;2024-03-23T01:45:35;68208.84;;;7.14;100.00
76126;BME280;65174;48.138;21.002;2024-03-23T01:48:37;68207.06;;;7.12;100.00
76126;BME280;65174;48.138;21.002;2024-03-23T01:51:38;68206.09;;;7.11;100.00
76126;BME280;65174;48.138;21.002;2024-03-23T01:54:40;68204.81;;;7.10;100.00
76126;BME280;65174;48.138;21.002;2024-03-23T01:57:41;68203.41;;;7.09;100.00
76126;BME280;65174;48.138;21.002;2024-03-23T02:00:42;68202.25;;;7.08;100.00
76126;BME280;65174;48.138;21.002;2024-03-23T02:03:43;68201.28;;;7.07;100.00
76126;BME280;65174;48.138;21.002;2024-03-23T02:06:44;68200.59;;;7.06;100.00
76126;BME280;65174;48.138;21.002;2024-03-23T02:09:45;68199.75;;;7.05;100.00
76126;BME280;65174;48.138;21.002;2024-03-23T02:12:46;68197.91;;;7.04;100.00
76126;BME280;65174;48.138;21.002;2024-03-23T02:15:47;68195.91;;;7.02;100.00
76126;BME280;65174;48.138;21.002;2024-03-23T02:18:48;68194.06;;;7.00;100.00
76126;BME280;65174;48.138;21.002;2024-03-23T02:21:49;68191.78;;;6.98;100.00
76126;BME280;65174;48.138;21.002;2024-03-23T02:24:50;68189.03;;;6.96;100.00
76126;BME280;65174;48.138;21.002;2024-03-23T02:27:51;68186.28;;;6.94;100.00
76126;BME280;65174;48.138;21.002;2024-03-23T02:30:54;68182.97;;;6.91;100.00
76126;BME280;65174;48.138;21.002;2024-03-23T02:33:55;68180.06;;;6.89;100.00
76126;BME280;65174;48.138;21.002;2024-03-23T02:36:57;68177.56;;;6.87;100.00
76126;BME280;65174;48.138;21.002;2024-03-23T02:39:58;68173.66;;;6.83;100.00
76126;BME280;65174;48.138;21.002;2024-03-23T02:42:59;68170.25;;;6.80;100.00
76126;BME280;65174;48.138;21.002;2024-03-23T02:46:00;68166.78;;;6.78;100.00
76126;BME280;65174;48.138;21.002;2024-03-23T02:49:01;68163.91;;;6.75;100.00
76126;BME280;65174;48.138;21.002;2024-03-23T02:52:04;68161.03;;;6.73;100.00
76126;BME280;65174;48.138;21.002;2024-03-23T02:55:05;68159.19;;;6.71;100.00
76126;BME280;65174;48.138;21.002;2024-03-23T02:58:06;68157.41;;;6.69;100.00
76126;BME280;65174;48.138;21.002;2024-03-23T03:01:07;68155.41;;;6.67;100.00
76126;BME280;65174;48.138;21.002;2024-03-23T03:04:08;68155.41;;;6.67;100.00
76126;BME280;65174;48.138;21.002;2024-03-23T03:07:09;68152.81;;;6.65;100.00
76126;BME280;65174;48.138;21.002;2024-03-23T03:10:10;68150.41;;;6.63;100.00
76126;BME280;65174;48.138;21.002;2024-03-23T03:13:12;68148.25;;;6.61;100.00
76126;BME280;65174;48.138;21.002;2024-03-23T03:16:13;68148.25;;;6.61;100.00
76126;BME280;65174;48.138;21.002;2024-03-23T03:19:14;68148.25;;;6.61;100.00
76126;BME280;65174;48.138;21.002;2024-03-23T03:22:15;68148.25;;;6.61;100.00
76126;BME280;65174;48.138;21.002;2024-03-23T03:25:16;68145.66;;;6.59;100.00
76126;BME280;65174;48.138;21.002;2024-03-23T03:28:17;68145.66;;;6.59;100.00
76126;BME280;65174;48.138;21.002;2024-03-23T03:31:18;68143.69;;;6.57;100.00
76126;BME280;65174;48.138;21.002;2024-03-23T03:34:19;68141.00;;;6.55;100.00
76126;BME280;65174;48.138;21.002;2024-03-23T03:37:20;68138.88;;;6.53;100.00
76126;BME280;65174;48.138;21.002;2024-03-23T03:40:24;68136.47;;;6.51;100.00
76126;BME280;65174;48.138;21.002;2024-03-23T03:43:26;68134.34;;;6.49;100.00
76126;BME280;65174;48.138;21.002;2024-03-23T03:46:27;68131.31;;;6.46;100.00
76126;BME280;65174;48.138;21.002;2024-03-23T03:49:28;68131.31;;;6.46;100.00
76126;BME280;65174;48.138;21.002;2024-03-23T03:52:29;68128.34;;;6.43;100.00
76126;BME280;65174;48.138;21.002;2024-03-23T03:55:30;68128.34;;;6.43;100.00
76126;BME280;65174;48.138;21.002;2024-03-23T03:58:31;68128.34;;;6.43;100.00
76126;BME280;65174;48.138;21.002;2024-03-23T04:01:32;68128.34;;;6.43;100.00
76126;BME280;65174;48.138;21.002;2024-03-23T04:04:33;68128.34;;;6.43;100.00
76126;BME280;65174;48.138;21.002;2024-03-23T04:07:34;68128.34;;;6.43;100.00
76126;BME280;65174;48.138;21.002;2024-03-23T04:10:35;68128.34;;;6.43;100.00
76126;BME280;65174;48.138;21.002;2024-03-23T04:13:36;68128.34;;;6.43;100.00
76126;BME280;65174;48.138;21.002;2024-03-23T04:16:37;68128.34;;;6.43;100.00
76126;BME280;65174;48.138;21.002;2024-03-23T04:19:38;68128.34;;;6.43;100.00
76126;BME280;65174;48.138;21.002;2024-03-23T04:22:40;68128.34;;;6.43;100.00
76126;BME280;65174;48.138;21.002;2024-03-23T04:25:41;68128.34;;;6.43;100.00
76126;BME280;65174;48.138;21.002;2024-03-23T04:28:42;68128.34;;;6.43;100.00
76126;BME280;65174;48.138;21.002;2024-03-23T04:31:43;68128.34;;;6.43;100.00
76126;BME280;65174;48.138;21.002;2024-03-23T04:34:44;68128.34;;;6.43;100.00
76126;BME280;65174;48.138;21.002;2024-03-23T04:37:46;68128.34;;;6.43;100.00
76126;BME280;65174;48.138;21.002;2024-03-23T04:40:57;68128.34;;;6.43;100.00
76126;BME280;65174;48.138;21.002;2024-03-23T04:43:58;68128.34;;;6.43;100.00
76126;BME280;65174;48.138;21.002;2024-03-23T04:47:00;68128.34;;;6.43;100.00
76126;BME280;65174;48.138;21.002;2024-03-23T04:50:02;68128.34;;;6.43;100.00
76126;BME280;65174;48.138;21.002;2024-03-23T04:53:03;68123.38;;;6.39;100.00
76126;BME280;65174;48.138;21.002;2024-03-23T04:56:04;68118.53;;;6.34;100.00
76126;BME280;65174;48.138;21.002;2024-03-23T04:59:05;68113.56;;;6.30;100.00
76126;BME280;65174;48.138;21.002;2024-03-23T05:02:06;68113.56;;;6.30;100.00
76126;BME280;65174;48.138;21.002;2024-03-23T05:05:07;68113.56;;;6.30;100.00
76126;BME280;65174;48.138;21.002;2024-03-23T05:08:08;68113.56;;;6.30;100.00
76126;BME280;65174;48.138;21.002;2024-03-23T05:11:09;68113.56;;;6.30;100.00
76126;BME280;65174;48.138;21.002;2024-03-23T05:14:13;68113.56;;;6.30;100.00
76126;BME280;65174;48.138;21.002;2024-03-23T05:17:14;68113.56;;;6.30;100.00
76126;BME280;65174;48.138;21.002;2024-03-23T05:20:15;68113.56;;;6.30;100.00
76126;BME280;65174;48.138;21.002;2024-03-23T05:23:17;68113.56;;;6.30;100.00
76126;BME280;65174;48.138;21.002;2024-03-23T05:26:18;68113.56;;;6.30;100.00
76126;BME280;65174;48.138;21.002;2024-03-23T05:29:19;68113.56;;;6.30;100.00
76126;BME280;65174;48.138;21.002;2024-03-23T05:32:19;68113.56;;;6.30;100.00
76126;BME280;65174;48.138;21.002;2024-03-23T05:35:21;68113.56;;;6.30;100.00
76126;BME280;65174;48.138;21.002;2024-03-23T05:38:22;68113.56;;;6.30;100.00
76126;BME280;65174;48.138;21.002;2024-03-23T05:41:23;68113.56;;;6.30;100.00
76126;BME280;65174;48.138;21.002;2024-03-23T05:44:24;68113.56;;;6.30;100.00
76126;BME280;65174;48.138;21.002;2024-03-23T05:47:25;68112.84;;;6.29;100.00
76126;BME280;65174;48.138;21.002;2024-03-23T05:50:26;68112.84;;;6.29;100.00
76126;BME280;65174;48.138;21.002;2024-03-23T05:53:27;68112.84;;;6.29;100.00
76126;BME280;65174;48.138;21.002;2024-03-23T05:56:30;68112.84;;;6.29;100.00
76126;BME280;65174;48.138;21.002;2024-03-23T05:59:31;68112.84;;;6.29;100.00
76126;BME280;65174;48.138;21.002;2024-03-23T06:02:32;68113.56;;;6.30;100.00
76126;BME280;65174;48.138;21.002;2024-03-23T06:05:33;68113.56;;;6.30;100.00
76126;BME280;65174;48.138;21.002;2024-03-23T06:08:34;68116.00;;;6.32;100.00
76126;BME280;65174;48.138;21.002;2024-03-23T06:11:36;68119.56;;;6.35;100.00
76126;BME280;65174;48.138;21.002;2024-03-23T06:14:37;68119.56;;;6.35;100.00
76126;BME280;65174;48.138;21.002;2024-03-23T06:17:39;68124.34;;;6.39;100.00
76126;BME280;65174;48.138;21.002;2024-03-23T06:20:39;68129.06;;;6.43;100.00
76126;BME280;65174;48.138;21.002;2024-03-23T06:23:42;68133.59;;;6.47;100.00
76126;BME280;65174;48.138;21.002;2024-03-23T06:26:43;68140.19;;;6.53;100.00
76126;BME280;65174;48.138;21.002;2024-03-23T06:29:44;68147.03;;;6.58;100.00
76126;BME280;65174;48.138;21.002;2024-03-23T06:32:45;68153.44;;;6.64;100.00
76126;BME280;65174;48.138;21.002;2024-03-23T06:35:50;68161.34;;;6.71;100.00
76126;BME280;65174;48.138;21.002;2024-03-23T06:38:52;68168.66;;;6.77;100.00
76126;BME280;65174;48.138;21.002;2024-03-23T06:41:54;68175.78;;;6.83;100.00
76126;BME280;65174;48.138;21.002;2024-03-23T06:44:55;68183.22;;;6.89;100.00
76126;BME280;65174;48.138;21.002;2024-03-23T06:47:56;68190.97;;;6.96;100.00
76126;BME280;65174;48.138;21.002;2024-03-23T06:50:58;68198.53;;;7.02;100.00
76126;BME280;65174;48.138;21.002;2024-03-23T06:53:59;68207.25;;;7.10;100.00
76126;BME280;65174;48.138;21.002;2024-03-23T06:57:00;68207.25;;;7.10;100.00
76126;BME280;65174;48.138;21.002;2024-03-23T07:00:04;68217.34;;;7.19;100.00
76126;BME280;65174;48.138;21.002;2024-03-23T07:03:06;68228.09;;;7.28;100.00
76126;BME280;65174;48.138;21.002;2024-03-23T07:06:09;68228.09;;;7.28;100.00
76126;BME280;65174;48.138;21.002;2024-03-23T07:09:11;68228.09;;;7.28;100.00
76126;BME280;65174;48.138;21.002;2024-03-23T07:12:12;68239.63;;;7.39;100.00
76126;BME280;65174;48.138;21.002;2024-03-23T07:15:13;68239.63;;;7.39;100.00
76126;BME280;65174;48.138;21.002;2024-03-23T07:18:14;68239.63;;;7.39;100.00
76126;BME280;65174;48.138;21.002;2024-03-23T07:21:15;68239.63;;;7.39;100.00
76126;BME280;65174;48.138;21.002;2024-03-23T07:24:16;68256.00;;;7.53;100.00
76126;BME280;65174;48.138;21.002;2024-03-23T07:27:17;68256.00;;;7.53;100.00
76126;BME280;65174;48.138;21.002;2024-03-23T07:30:18;68256.00;;;7.53;100.00
76126;BME280;65174;48.138;21.002;2024-03-23T07:33:19;68256.00;;;7.53;100.00
76126;BME280;65174;48.138;21.002;2024-03-23T07:36:20;68256.00;;;7.53;100.00
76126;BME280;65174;48.138;21.002;2024-03-23T07:39:20;68256.00;;;7.53;100.00
76126;BME280;65174;48.138;21.002;2024-03-23T07:42:21;68256.00;;;7.53;100.00
76126;BME280;65174;48.138;21.002;2024-03-23T07:45:22;68256.00;;;7.53;100.00
76126;BME280;65174;48.138;21.002;2024-03-23T07:48:23;68256.00;;;7.53;100.00
76126;BME280;65174;48.138;21.002;2024-03-23T08:28:44;68256.00;;;7.53;100.00
76126;BME280;65174;48.138;21.002;2024-03-23T08:31:45;68256.00;;;7.53;100.00
76126;BME280;65174;48.138;21.002;2024-03-23T08:34:46;68256.00;;;7.53;100.00
76126;BME280;65174;48.138;21.002;2024-03-23T08:37:47;68256.00;;;7.53;100.00
76126;BME280;65174;48.138;21.002;2024-03-23T08:40:47;68256.00;;;7.53;100.00
76126;BME280;65174;48.138;21.002;2024-03-23T08:43:48;68256.00;;;7.53;100.00
76126;BME280;65174;48.138;21.002;2024-03-23T08:46:49;68256.00;;;7.53;100.00
76126;BME280;65174;48.138;21.002;2024-03-23T08:49:51;68256.00;;;7.53;100.00
76126;BME280;65174;48.138;21.002;2024-03-23T08:52:52;68256.00;;;7.53;100.00
76126;BME280;65174;48.138;21.002;2024-03-23T08:55:54;68256.00;;;7.53;100.00
76126;BME280;65174;48.138;21.002;2024-03-23T08:58:54;68256.00;;;7.53;100.00
76126;BME280;65174;48.138;21.002;2024-03-23T09:01:56;68256.00;;;7.53;100.00
76126;BME280;65174;48.138;21.002;2024-03-23T09:04:59;68256.00;;;7.53;100.00
76126;BME280;65174;48.138;21.002;2024-03-23T09:08:05;68256.00;;;7.53;100.00
76126;BME280;65174;48.138;21.002;2024-03-23T09:11:07;68256.00;;;7.53;100.00
76126;BME280;65174;48.138;21.002;2024-03-23T09:14:09;68256.00;;;7.53;100.00
76126;BME280;65174;48.138;21.002;2024-03-23T09:17:10;68256.00;;;7.53;100.00
76126;BME280;65174;48.138;21.002;2024-03-23T09:20:11;68298.16;;;7.90;100.00
76126;BME280;65174;48.138;21.002;2024-03-23T09:23:12;68298.16;;;7.90;100.00
76126;BME280;65174;48.138;21.002;2024-03-23T09:26:13;68298.16;;;7.90;100.00
76126;BME280;65174;48.138;21.002;2024-03-23T09:29:14;68343.63;;;8.29;100.00
76126;BME280;65174;48.138;21.002;2024-03-23T09:32:15;68387.84;;;8.68;100.00
76126;BME280;65174;48.138;21.002;2024-03-23T09:35:16;68387.84;;;8.68;100.00
76126;BME280;65174;48.138;21.002;2024-03-23T09:38:16;68431.78;;;9.06;100.00
76126;BME280;65174;48.138;21.002;2024-03-23T09:41:17;68431.78;;;9.06;100.00
76126;BME280;65174;48.138;21.002;2024-03-23T09:44:18;68431.78;;;9.06;100.00
76126;BME280;65174;48.138;21.002;2024-03-23T09:47:19;68431.78;;;9.06;100.00
76126;BME280;65174;48.138;21.002;2024-03-23T09:50:22;68475.75;;;9.44;100.00
76126;BME280;65174;48.138;21.002;2024-03-23T09:53:23;68475.75;;;9.44;100.00
76126;BME280;65174;48.138;21.002;2024-03-23T09:56:24;68475.75;;;9.44;100.00
76126;BME280;65174;48.138;21.002;2024-03-23T09:59:25;68519.25;;;9.81;100.00
76126;BME280;65174;48.138;21.002;2024-03-23T10:02:28;68560.06;;;10.17;100.00
76126;BME280;65174;48.138;21.002;2024-03-23T10:05:30;68605.47;;;10.57;100.00
76126;BME280;65174;48.138;21.002;2024-03-23T10:08:37;68648.13;;;10.94;99.40
76126;BME280;65174;48.138;21.002;2024-03-23T10:11:38;68687.84;;;11.28;100.00
76126;BME280;65174;48.138;21.002;2024-03-23T10:14:43;68719.66;;;11.56;100.00
76126;BME280;65174;48.138;21.002;2024-03-23T10:17:44;68749.78;;;11.82;100.00
76126;BME280;65174;48.138;21.002;2024-03-23T10:21:10;68779.06;;;12.08;100.00
76126;BME280;65174;48.138;21.002;2024-03-23T10:24:17;68803.75;;;12.29;100.00
76126;BME280;65174;48.138;21.002;2024-03-23T10:27:19;68828.00;;;12.50;100.00
76126;BME280;65174;48.138;21.002;2024-03-23T10:30:21;68849.84;;;12.69;100.00
76126;BME280;65174;48.138;21.002;2024-03-23T10:33:22;68871.34;;;12.88;100.00
76126;BME280;65174;48.138;21.002;2024-03-23T10:36:24;68891.44;;;13.05;100.00
76126;BME280;65174;48.138;21.002;2024-03-23T10:39:26;68909.72;;;13.21;100.00
76126;BME280;65174;48.138;21.002;2024-03-23T10:42:29;68927.25;;;13.36;100.00
76126;BME280;65174;48.138;21.002;2024-03-23T10:45:31;68945.78;;;13.52;100.00
76126;BME280;65174;48.138;21.002;2024-03-23T10:48:33;68964.03;;;13.68;100.00
76126;BME280;65174;48.138;21.002;2024-03-23T10:51:34;68980.13;;;13.81;100.00
76126;BME280;65174;48.138;21.002;2024-03-23T10:54:36;68996.06;;;13.95;100.00
76126;BME280;65174;48.138;21.002;2024-03-23T10:57:45;68996.06;;;13.95;100.00
76126;BME280;65174;48.138;21.002;2024-03-23T11:00:48;69013.72;;;14.11;100.00
76126;BME280;65174;48.138;21.002;2024-03-23T11:03:51;69029.56;;;14.24;100.00
76126;BME280;65174;48.138;21.002;2024-03-23T11:06:52;69044.81;;;14.38;100.00
76126;BME280;65174;48.138;21.002;2024-03-23T11:09:54;69058.31;;;14.49;100.00
76126;BME280;65174;48.138;21.002;2024-03-23T11:12:58;69071.97;;;14.61;100.00
76126;BME280;65174;48.138;21.002;2024-03-23T11:16:26;69071.97;;;14.61;100.00
76126;BME280;65174;48.138;21.002;2024-03-23T11:19:37;69088.38;;;14.75;100.00
76126;BME280;65174;48.138;21.002;2024-03-23T11:25:41;69117.22;;;15.01;89.22
76126;BME280;65174;48.138;21.002;2024-03-23T11:28:42;69130.63;;;15.12;93.55
76126;BME280;65174;48.138;21.002;2024-03-23T11:31:48;69130.63;;;15.12;93.55
76126;BME280;65174;48.138;21.002;2024-03-23T11:34:49;69144.59;;;15.24;95.25
76126;BME280;65174;48.138;21.002;2024-03-23T11:38:18;69158.66;;;15.36;90.22
76126;BME280;65174;48.138;21.002;2024-03-23T11:41:19;69171.91;;;15.48;90.26
76126;BME280;65174;48.138;21.002;2024-03-23T11:44:26;69171.91;;;15.48;90.26
76126;BME280;65174;48.138;21.002;2024-03-23T11:47:27;69182.25;;;15.57;90.50
76126;BME280;65174;48.138;21.002;2024-03-23T11:50:28;69182.25;;;15.57;90.50
76126;BME280;65174;48.138;21.002;2024-03-23T11:53:29;69192.59;;;15.66;84.87
76126;BME280;65174;48.138;21.002;2024-03-23T11:56:31;69192.59;;;15.66;84.87
76126;BME280;65174;48.138;21.002;2024-03-23T11:59:39;69204.25;;;15.76;81.76
76126;BME280;65174;48.138;21.002;2024-03-23T12:02:44;69215.22;;;15.85;82.88
76126;BME280;65174;48.138;21.002;2024-03-23T12:05:49;69226.31;;;15.95;77.06
76126;BME280;65174;48.138;21.002;2024-03-23T12:09:05;69235.22;;;16.03;72.47
76126;BME280;65174;48.138;21.002;2024-03-23T12:12:13;69243.44;;;16.10;72.22
76126;BME280;65174;48.138;21.002;2024-03-23T12:15:15;69251.94;;;16.17;70.01
76126;BME280;65174;48.138;21.002;2024-03-23T12:18:17;69258.56;;;16.23;68.83
76126;BME280;65174;48.138;21.002;2024-03-23T12:21:18;69263.88;;;16.27;64.48
76126;BME280;65174;48.138;21.002;2024-03-23T12:24:19;69268.78;;;16.32;67.52
76126;BME280;65174;48.138;21.002;2024-03-23T12:27:21;69273.66;;;16.36;64.73
76126;BME280;65174;48.138;21.002;2024-03-23T12:30:21;69277.41;;;16.39;66.34
76126;BME280;65174;48.138;21.002;2024-03-23T12:33:22;69281.59;;;16.43;66.79
76126;BME280;65174;48.138;21.002;2024-03-23T12:36:23;69286.06;;;16.47;63.95
76126;BME280;65174;48.138;21.002;2024-03-23T12:39:24;69289.25;;;16.49;62.92
76126;BME280;65174;48.138;21.002;2024-03-23T12:42:25;69291.72;;;16.51;63.97
76126;BME280;65174;48.138;21.002;2024-03-23T12:45:26;69293.59;;;16.53;62.97
76126;BME280;65174;48.138;21.002;2024-03-23T12:48:27;69294.94;;;16.54;60.63
76126;BME280;65174;48.138;21.002;2024-03-23T12:51:29;69296.34;;;16.55;61.39
76126;BME280;65174;48.138;21.002;2024-03-23T12:54:30;69298.69;;;16.57;60.53
76126;BME280;65174;48.138;21.002;2024-03-23T12:57:32;69299.97;;;16.58;59.98
76126;BME280;65174;48.138;21.002;2024-03-23T13:00:33;69299.78;;;16.58;58.98
76126;BME280;65174;48.138;21.002;2024-03-23T13:03:34;69300.63;;;16.59;58.64
76126;BME280;65174;48.138;21.002;2024-03-23T13:06:36;69300.78;;;16.59;59.00
76126;BME280;65174;48.138;21.002;2024-03-23T13:09:39;69300.66;;;16.59;57.99
76126;BME280;65174;48.138;21.002;2024-03-23T13:12:40;69300.97;;;16.59;56.58
76126;BME280;65174;48.138;21.002;2024-03-23T13:15:41;69301.28;;;16.59;59.62
76126;BME280;65174;48.138;21.002;2024-03-23T13:18:42;69301.69;;;16.60;63.67
76126;BME280;65174;48.138;21.002;2024-03-23T13:21:43;69300.94;;;16.59;60.42
76126;BME280;65174;48.138;21.002;2024-03-23T13:24:44;69300.97;;;16.59;60.67
76126;BME280;65174;48.138;21.002;2024-03-23T13:27:45;69300.41;;;16.59;61.27
76126;BME280;65174;48.138;21.002;2024-03-23T13:30:53;69300.13;;;16.58;61.11
76126;BME280;65174;48.138;21.002;2024-03-23T13:33:54;69299.25;;;16.57;61.29
76126;BME280;65174;48.138;21.002;2024-03-23T13:36:55;69298.25;;;16.57;59.48
76126;BME280;65174;48.138;21.002;2024-03-23T13:39:59;69296.63;;;16.55;59.69
76126;BME280;65174;48.138;21.002;2024-03-23T13:43:01;69294.75;;;16.54;60.11
76126;BME280;65174;48.138;21.002;2024-03-23T13:46:02;69293.03;;;16.52;59.90
76126;BME280;65174;48.138;21.002;2024-03-23T13:49:04;69291.88;;;16.51;59.69
76126;BME280;65174;48.138;21.002;2024-03-23T13:52:05;69291.63;;;16.51;59.08
76126;BME280;65174;48.138;21.002;2024-03-23T13:55:07;69291.09;;;16.50;58.27
76126;BME280;65174;48.138;21.002;2024-03-23T13:58:09;69290.38;;;16.49;57.73
76126;BME280;65174;48.138;21.002;2024-03-23T14:01:14;69289.16;;;16.49;58.64
76126;BME280;65174;48.138;21.002;2024-03-23T14:04:15;69289.16;;;16.49;58.64
76126;BME280;65174;48.138;21.002;2024-03-23T14:07:23;69288.78;;;16.48;57.97
76126;BME280;65174;48.138;21.002;2024-03-23T14:10:24;69288.31;;;16.48;57.82
76126;BME280;65174;48.138;21.002;2024-03-23T14:13:25;69288.19;;;16.48;58.26
76126;BME280;65174;48.138;21.002;2024-03-23T14:16:26;69288.16;;;16.48;58.86
76126;BME280;65174;48.138;21.002;2024-03-23T14:19:27;69288.16;;;16.48;58.86
76126;BME280;65174;48.138;21.002;2024-03-23T14:22:28;69288.56;;;16.48;60.33
76126;BME280;65174;48.138;21.002;2024-03-23T14:25:31;69289.25;;;16.49;61.01
76126;BME280;65174;48.138;21.002;2024-03-23T14:28:33;69289.88;;;16.50;61.42
76126;BME280;65174;48.138;21.002;2024-03-23T14:31:34;69289.88;;;16.50;61.42
76126;BME280;65174;48.138;21.002;2024-03-23T14:34:36;69290.91;;;16.50;61.81
76126;BME280;65174;48.138;21.002;2024-03-23T14:37:37;69290.84;;;16.51;63.44
76126;BME280;65174;48.138;21.002;2024-03-23T14:40:38;69290.38;;;16.51;61.62
76126;BME280;65174;48.138;21.002;2024-03-23T14:43:39;69289.84;;;16.50;63.79
76126;BME280;65174;48.138;21.002;2024-03-23T14:46:40;69288.97;;;16.49;62.91
76126;BME280;65174;48.138;21.002;2024-03-23T14:49:41;69288.72;;;16.48;64.74
76126;BME280;65174;48.138;21.002;2024-03-23T14:52:46;69288.28;;;16.48;65.33
76126;BME280;65174;48.138;21.002;2024-03-23T14:55:48;69288.13;;;16.48;64.74
76126;BME280;65174;48.138;21.002;2024-03-23T14:58:53;69287.38;;;16.48;65.52
76126;BME280;65174;48.138;21.002;2024-03-23T15:01:56;69286.34;;;16.47;68.54
76126;BME280;65174;48.138;21.002;2024-03-23T15:04:58;69285.25;;;16.46;67.56
76126;BME280;65174;48.138;21.002;2024-03-23T15:07:59;69283.41;;;16.44;70.54
76126;BME280;65174;48.138;21.002;2024-03-23T15:11:01;69283.41;;;16.44;70.54
76126;BME280;65174;48.138;21.002;2024-03-23T15:14:05;69283.41;;;16.44;70.54
76126;BME280;65174;48.138;21.002;2024-03-23T15:17:08;69279.13;;;16.41;72.84
76126;BME280;65174;48.138;21.002;2024-03-23T15:20:10;69279.13;;;16.41;72.84
76126;BME280;65174;48.138;21.002;2024-03-23T15:23:12;69275.44;;;16.37;75.27
76126;BME280;65174;48.138;21.002;2024-03-23T15:26:13;69271.56;;;16.34;76.62
76126;BME280;65174;48.138;21.002;2024-03-23T15:29:14;69267.41;;;16.30;76.62
76126;BME280;65174;48.138;21.002;2024-03-23T15:32:17;69262.94;;;16.26;77.40
76126;BME280;65174;48.138;21.002;2024-03-23T15:35:19;69258.31;;;16.22;79.19
76126;BME280;65174;48.138;21.002;2024-03-23T15:38:23;69253.81;;;16.19;79.65
76126;BME280;65174;48.138;21.002;2024-03-23T15:41:24;69248.50;;;16.14;82.11
76126;BME280;65174;48.138;21.002;2024-03-23T15:44:25;69244.06;;;16.10;84.51
76126;BME280;65174;48.138;21.002;2024-03-23T15:47:26;69238.28;;;16.05;87.05
76126;BME280;65174;48.138;21.002;2024-03-23T15:50:27;69232.56;;;16.00;89.04
76126;BME280;65174;48.138;21.002;2024-03-23T15:53:28;69232.56;;;16.00;89.04
76126;BME280;65174;48.138;21.002;2024-03-23T15:56:29;69227.09;;;15.95;87.95
76126;BME280;65174;48.138;21.002;2024-03-23T15:59:30;69221.19;;;15.90;88.17
76126;BME280;65174;48.138;21.002;2024-03-23T16:02:31;69215.16;;;15.85;91.02
76126;BME280;65174;48.138;21.002;2024-03-23T16:05:32;69215.16;;;15.85;91.02
76126;BME280;65174;48.138;21.002;2024-03-23T16:08:33;69215.16;;;15.85;91.02
76126;BME280;65174;48.138;21.002;2024-03-23T16:11:34;69207.53;;;15.78;96.81
76126;BME280;65174;48.138;21.002;2024-03-23T16:14:35;69207.53;;;15.78;96.81
76126;BME280;65174;48.138;21.002;2024-03-23T16:17:36;69207.53;;;15.78;96.81
76126;BME280;65174;48.138;21.002;2024-03-23T16:20:37;69207.53;;;15.78;96.81
76126;BME280;65174;48.138;21.002;2024-03-23T16:23:38;69198.91;;;15.71;100.00
76126;BME280;65174;48.138;21.002;2024-03-23T16:26:39;69190.84;;;15.64;100.00
76126;BME280;65174;48.138;21.002;2024-03-23T16:29:41;69183.25;;;15.57;100.00
76126;BME280;65174;48.138;21.002;2024-03-23T16:32:42;69175.75;;;15.50;100.00
76126;BME280;65174;48.138;21.002;2024-03-23T16:35:43;69168.66;;;15.45;100.00
76126;BME280;65174;48.138;21.002;2024-03-23T16:38:47;69162.16;;;15.39;100.00
76126;BME280;65174;48.138;21.002;2024-03-23T16:41:48;69155.53;;;15.33;100.00
76126;BME280;65174;48.138;21.002;2024-03-23T16:44:49;69148.47;;;15.27;100.00
76126;BME280;65174;48.138;21.002;2024-03-23T16:47:50;69141.88;;;15.22;100.00
76126;BME280;65174;48.138;21.002;2024-03-23T16:50:51;69141.88;;;15.22;100.00
76126;BME280;65174;48.138;21.002;2024-03-23T16:53:53;69135.25;;;15.16;100.00
76126;BME280;65174;48.138;21.002;2024-03-23T16:56:56;69128.78;;;15.10;100.00
76126;BME280;65174;48.138;21.002;2024-03-23T16:59:57;69122.13;;;15.05;100.00
76126;BME280;65174;48.138;21.002;2024-03-23T17:02:58;69115.97;;;14.99;100.00
76126;BME280;65174;48.138;21.002;2024-03-23T17:06:08;69109.19;;;14.93;100.00
76126;BME280;65174;48.138;21.002;2024-03-23T17:09:11;69103.16;;;14.88;100.00
76126;BME280;65174;48.138;21.002;2024-03-23T17:12:12;69097.53;;;14.84;100.00
76126;BME280;65174;48.138;21.002;2024-03-23T17:15:13;69092.47;;;14.79;100.00
76126;BME280;65174;48.138;21.002;2024-03-23T17:18:15;69088.19;;;14.75;100.00
76126;BME280;65174;48.138;21.002;2024-03-23T17:21:16;69083.44;;;14.71;100.00